Time;durP1;ratioP1;P1;durP2;ratioP2;P2;SDS_P1;SDS_P2;PMS_P1;PMS_P2;Temp;Humidity;BMP_temperature;BMP_pressure;BME280_temperature;BME280_humidity;BME280_pressure;Samples;Min_cycle;Max_cycle;Signal;HPM_P1;HPM_P2
2021/04/08 00:00:22;;;;;;;2.72;1.60;;;;;;;3.13;100.00;100311.44;5053186;28;20025;-69
2021/04/08 00:02:48;;;;;;;3.88;2.13;;;;;;;3.36;100.00;100338.78;5053479;28;20500;-69
2021/04/08 00:05:15;;;;;;;3.97;2.53;;;;;;;3.28;100.00;100342.59;5052771;28;20041;-70
2021/04/08 00:07:41;;;;;;;3.28;2.10;;;;;;;3.21;100.00;100328.28;5053297;28;20025;-69
2021/04/08 00:10:08;;;;;;;3.92;2.45;;;;;;;3.28;100.00;100326.22;5052908;28;20032;-69
2021/04/08 00:12:33;;;;;;;3.30;2.15;;;;;;;3.54;100.00;100348.19;5053108;28;20029;-70
2021/04/08 00:14:59;;;;;;;2.65;1.70;;;;;;;3.81;100.00;100355.44;5052624;28;20029;-70
2021/04/08 00:17:24;;;;;;;2.50;1.65;;;;;;;3.69;100.00;100342.22;5052124;28;20083;-69
2021/04/08 00:19:50;;;;;;;3.47;2.15;;;;;;;3.30;100.00;100290.69;5052616;28;20476;-70
2021/04/08 00:22:16;;;;;;;4.57;3.03;;;;;;;3.58;100.00;100330.72;5052508;28;20021;-69
2021/04/08 00:24:41;;;;;;;3.47;2.38;;;;;;;3.59;100.00;100298.72;5052537;28;20035;-70
2021/04/08 00:27:07;;;;;;;5.03;2.47;;;;;;;3.57;100.00;100308.31;5051571;28;20098;-69
2021/04/08 00:29:33;;;;;;;4.50;2.45;;;;;;;3.81;100.00;100365.81;5052547;28;20068;-70
2021/04/08 00:31:58;;;;;;;7.50;3.97;;;;;;;3.59;100.00;100314.28;5051208;28;20040;-69
2021/04/08 00:34:24;;;;;;;6.57;3.70;;;;;;;3.67;100.00;100338.03;5052414;28;20087;-69
2021/04/08 00:36:49;;;;;;;8.88;5.65;;;;;;;3.65;100.00;100352.84;5052208;28;20024;-70
2021/04/08 00:39:15;;;;;;;7.72;2.97;;;;;;;3.46;100.00;100327.84;5052755;28;20075;-70
2021/04/08 00:41:41;;;;;;;6.00;3.85;;;;;;;3.68;100.00;100365.63;5052453;28;20017;-69
2021/04/08 00:44:07;;;;;;;4.80;3.03;;;;;;;3.63;100.00;100357.25;5052479;28;20024;-70
2021/04/08 00:46:33;;;;;;;5.65;3.88;;;;;;;3.39;100.00;100331.69;5052161;28;20578;-70
2021/04/08 00:48:58;;;;;;;7.55;3.25;;;;;;;3.69;100.00;100352.59;5052121;28;20029;-69
2021/04/08 00:51:24;;;;;;;8.48;5.05;;;;;;;3.40;100.00;100315.22;5052086;28;20411;-70
2021/04/08 00:53:51;;;;;;;6.43;4.32;;;;;;;3.65;100.00;100345.06;5052303;28;20067;-69
2021/04/08 00:56:17;;;;;;;6.93;4.35;;;;;;;3.46;100.00;100309.72;5052172;28;20055;-69
2021/04/08 00:58:43;;;;;;;6.10;3.85;;;;;;;3.36;100.00;100310.28;5052097;28;20033;-70
2021/04/08 01:01:11;;;;;;;4.80;2.97;;;;;;;3.49;100.00;100334.66;5052393;28;20104;-69
2021/04/08 01:03:37;;;;;;;7.97;4.40;;;;;;;3.38;100.00;100327.44;5052013;28;20527;-70
2021/04/08 01:06:03;;;;;;;4.05;2.55;;;;;;;3.35;100.00;100324.16;5052372;28;20103;-70
2021/04/08 01:08:28;;;;;;;6.53;4.03;;;;;;;3.26;100.00;100322.84;5052126;28;20037;-70
2021/04/08 01:10:54;;;;;;;6.20;4.25;;;;;;;3.15;100.00;100326.00;5052194;28;20381;-70
2021/04/08 01:13:22;;;;;;;8.00;4.22;;;;;;;3.10;100.00;100319.34;5052323;28;20074;-69
2021/04/08 01:15:48;;;;;;;8.85;4.65;;;;;;;2.77;100.00;100278.72;5052033;28;20107;-70
2021/04/08 01:19:00;;;;;;;8.50;4.18;;;;;;;3.19;100.00;100344.81;5051880;28;20063;-70
2021/04/08 01:21:37;;;;;;;8.98;4.82;;;;;;;3.26;100.00;100369.47;5043877;28;20037;-70
2021/04/08 01:24:32;;;;;;;5.70;3.83;;;;;;;3.19;100.00;100375.88;5052118;28;20036;-69
2021/04/08 01:27:03;;;;;;;9.32;5.22;;;;;;;3.21;100.00;100379.25;5052252;28;20087;-69
2021/04/08 01:29:47;;;;;;;6.10;3.42;;;;;;;3.18;100.00;100379.41;5055069;28;20065;-69
2021/04/08 01:32:14;;;;;;;6.43;4.03;;;;;;;2.77;100.00;100351.19;5056304;28;20507;-69
2021/04/08 01:34:44;;;;;;;7.38;4.72;;;;;;;2.74;100.00;100362.53;5054651;28;20491;-70
2021/04/08 01:37:10;;;;;;;;;;;;;;;2.88;100.00;100387.75;5056228;28;20025;-70
2021/04/08 01:39:43;;;;;;;7.20;3.95;;;;;;;2.78;100.00;100363.22;5055749;28;19908;-70
2021/04/08 01:42:10;;;;;;;8.35;5.20;;;;;;;2.76;100.00;100363.25;5056067;28;20067;-69
2021/04/08 01:44:36;;;;;;;9.05;5.78;;;;;;;2.91;100.00;100361.72;5055755;28;20025;-69
2021/04/08 01:47:05;;;;;;;7.88;5.00;;;;;;;3.12;100.00;100387.47;5055558;28;20476;-69
2021/04/08 01:49:39;;;;;;;9.75;5.75;;;;;;;3.07;100.00;100352.28;5055662;28;20090;-70
2021/04/08 01:52:06;;;;;;;8.30;5.78;;;;;;;3.14;100.00;100339.00;5056161;28;20040;-70
2021/04/08 01:54:34;;;;;;;11.80;7.97;;;;;;;3.44;100.00;100381.53;5055670;28;20024;-70
2021/04/08 01:57:04;;;;;;;10.02;5.35;;;;;;;3.26;100.00;100380.69;5055687;28;20504;-69
2021/04/08 01:59:30;;;;;;;;;;;;;;;3.37;100.00;100376.72;5056173;28;20027;-69
2021/04/08 02:02:00;;;;;;;7.22;5.13;;;;;;;3.06;100.00;100355.75;5055252;28;19912;-70
2021/04/08 02:04:28;;;;;;;8.23;6.07;;;;;;;3.17;100.00;100385.47;5055479;28;20507;-70
2021/04/08 02:06:54;;;;;;;8.15;5.68;;;;;;;3.01;100.00;100350.00;5055039;28;20029;-70
2021/04/08 02:09:22;;;;;;;7.35;5.57;;;;;;;3.21;100.00;100392.19;5055095;28;20087;-69
2021/04/08 02:11:48;;;;;;;7.82;5.53;;;;;;;3.27;100.00;100387.56;5054912;28;20451;-70
2021/04/08 02:14:15;;;;;;;7.15;5.10;;;;;;;3.09;100.00;100367.72;5054955;28;20029;-69
2021/04/08 02:16:51;;;;;;;8.73;6.20;;;;;;;3.12;100.00;100392.66;5054903;28;20061;-70
2021/04/08 02:19:22;;;;;;;7.93;6.28;;;;;;;3.21;100.00;100402.56;5054939;28;20035;-69
2021/04/08 02:21:51;;;;;;;7.57;5.30;;;;;;;3.01;100.00;100368.13;5053720;28;20400;-69
2021/04/08 02:24:17;;;;;;;9.23;6.10;;;;;;;3.28;100.00;100390.97;5054820;28;20064;-70
2021/04/08 02:26:44;;;;;;;9.75;5.90;;;;;;;3.32;100.00;100395.09;5054727;28;20036;-69
2021/04/08 02:29:11;;;;;;;8.55;6.10;;;;;;;3.46;100.00;100390.03;5054932;28;20064;-70
2021/04/08 02:31:38;;;;;;;8.88;5.82;;;;;;;3.36;100.00;100378.47;5054915;28;20031;-70
2021/04/08 02:34:09;;;;;;;8.52;6.00;;;;;;;3.60;100.00;100410.09;5054754;28;20488;-70
2021/04/08 02:36:39;;;;;;;9.02;5.85;;;;;;;3.60;100.00;100409.25;5054777;28;20051;-69
2021/04/08 02:39:09;;;;;;;7.28;5.32;;;;;;;3.86;100.00;100424.31;5054576;28;20112;-70
2021/04/08 02:41:38;;;;;;;;;;;;;;;3.89;100.00;100424.16;5054540;28;20033;-70
2021/04/08 02:44:04;;;;;;;11.48;6.57;;;;;;;3.88;100.00;100419.03;5054667;28;20379;-70
2021/04/08 02:46:30;;;;;;;8.75;6.15;;;;;;;4.00;100.00;100429.63;5053409;28;20029;-69
2021/04/08 02:48:56;;;;;;;8.90;6.82;;;;;;;4.02;100.00;100422.59;5054668;28;20092;-69
2021/04/08 02:51:29;;;;;;;8.68;6.05;;;;;;;4.07;100.00;100421.53;5054403;28;20547;-70
2021/04/08 02:54:12;;;;;;;10.63;6.07;;;;;;;3.94;100.00;100387.59;5054668;28;20024;-69
2021/04/08 02:56:40;;;;;;;8.07;5.80;;;;;;;3.92;100.00;100366.94;5054357;28;20095;-69
2021/04/08 02:59:17;;;;;;;7.50;5.63;;;;;;;4.25;100.00;100399.78;5054335;28;20032;-70
2021/04/08 03:02:13;;;;;;;7.53;5.30;;;;;;;4.36;100.00;100394.88;5054372;28;20025;-69
2021/04/08 03:04:47;;;;;;;8.45;5.57;;;;;;;4.12;100.00;100375.44;5053810;28;20099;-70
2021/04/08 03:07:15;;;;;;;9.18;6.35;;;;;;;4.16;100.00;100406.31;5054361;28;20036;-69
2021/04/08 03:09:42;;;;;;;10.25;6.30;;;;;;;3.92;100.00;100399.81;5054161;28;20033;-70
2021/04/08 03:12:10;;;;;;;9.90;5.57;;;;;;;3.96;100.00;100433.28;5053981;28;20028;-70
2021/04/08 03:14:46;;;;;;;7.63;5.38;;;;;;;3.80;100.00;100432.41;5053946;28;20492;-70
2021/04/08 03:17:15;;;;;;;10.48;5.15;;;;;;;3.46;100.00;100381.44;5053797;28;20460;-70
2021/04/08 03:19:43;;;;;;;8.10;5.60;;;;;;;3.48;100.00;100375.28;5053693;28;20025;-69
2021/04/08 03:22:09;;;;;;;8.30;5.65;;;;;;;3.61;100.00;100379.81;5053875;28;20025;-69
2021/04/08 03:24:36;;;;;;;8.10;5.45;;;;;;;3.73;100.00;100389.56;5053793;28;20090;-70
2021/04/08 03:27:04;;;;;;;8.60;5.22;;;;;;;3.81;100.00;100404.72;5053502;28;20476;-70
2021/04/08 03:29:31;;;;;;;7.55;5.47;;;;;;;3.96;100.00;100428.09;5053566;28;20029;-69
2021/04/08 03:31:57;;;;;;;8.30;5.75;;;;;;;3.80;100.00;100398.69;5053801;28;20071;-69
2021/04/08 03:34:23;;;;;;;8.32;5.55;;;;;;;3.85;100.00;100403.63;5053510;28;20450;-69
2021/04/08 03:36:49;;;;;;;9.60;5.93;;;;;;;3.87;100.00;100413.00;5053588;28;20021;-69
2021/04/08 03:39:15;;;;;;;8.35;5.95;;;;;;;3.78;100.00;100429.06;5053360;28;20484;-69
2021/04/08 03:41:42;;;;;;;7.57;5.55;;;;;;;3.70;100.00;100420.81;5053350;28;20029;-70
2021/04/08 03:44:11;;;;;;;8.88;5.65;;;;;;;4.02;100.00;100461.50;5053531;28;20036;-70
2021/04/08 03:46:39;;;;;;;8.50;5.85;;;;;;;4.04;100.00;100476.97;5053417;28;20036;-70
2021/04/08 03:49:08;;;;;;;10.93;6.00;;;;;;;4.12;100.00;100480.03;5052091;28;20095;-70
2021/04/08 03:51:37;;;;;;;7.88;5.68;;;;;;;4.24;100.00;100496.69;5052436;28;20032;-70
2021/04/08 03:54:06;;;;;;;9.60;6.50;;;;;;;4.19;100.00;100493.53;5053030;28;20059;-69
2021/04/08 03:56:35;;;;;;;9.82;6.05;;;;;;;4.01;100.00;100467.59;5053062;28;20033;-69
2021/04/08 03:59:02;;;;;;;8.57;5.90;;;;;;;4.27;100.00;100499.13;5053074;28;20048;-70
2021/04/08 04:01:28;;;;;;;10.60;6.97;;;;;;;4.10;100.00;100478.44;5053077;28;20408;-69
2021/04/08 04:03:54;;;;;;;8.23;5.72;;;;;;;4.22;100.00;100495.97;5053354;28;20056;-69
2021/04/08 04:06:20;;;;;;;11.10;6.50;;;;;;;4.18;100.00;100473.66;5053113;28;20021;-70
2021/04/08 04:08:46;;;;;;;9.55;5.85;;;;;;;4.25;100.00;100503.56;5053431;28;20076;-69
2021/04/08 04:11:12;;;;;;;10.13;7.28;;;;;;;4.10;100.00;100502.59;5052893;28;20497;-70
2021/04/08 04:13:39;;;;;;;12.55;7.20;;;;;;;4.18;100.00;100505.63;5053028;28;20056;-69
2021/04/08 04:16:07;;;;;;;8.40;6.20;;;;;;;4.16;100.00;100514.44;5053031;28;20025;-69
2021/04/08 04:18:33;;;;;;;9.82;6.28;;;;;;;4.07;100.00;100522.66;5053009;28;20112;-69
2021/04/08 04:20:59;;;;;;;9.68;6.10;;;;;;;3.82;100.00;100507.53;5052785;28;20063;-69
2021/04/08 04:23:25;;;;;;;8.60;6.43;;;;;;;3.74;100.00;100526.03;5052905;28;20453;-69
2021/04/08 04:25:50;;;;;;;11.55;6.35;;;;;;;4.03;100.00;100550.53;5051961;28;20020;-70
2021/04/08 04:28:16;;;;;;;9.13;5.95;;;;;;;4.01;100.00;100563.56;5051755;28;20089;-69
2021/04/08 04:30:41;;;;;;;9.77;6.72;;;;;;;4.00;100.00;100572.25;5052055;28;20082;-70
2021/04/08 04:33:07;;;;;;;8.38;5.88;;;;;;;3.99;100.00;100564.56;5051739;28;20032;-70
2021/04/08 04:35:32;;;;;;;11.45;6.50;;;;;;;3.96;100.00;100577.69;5052010;28;20025;-70
2021/04/08 04:37:58;;;;;;;8.57;6.07;;;;;;;3.95;100.00;100584.63;5052582;28;20033;-69
2021/04/08 04:40:23;;;;;;;11.10;8.07;;;;;;;3.75;100.00;100558.84;5051695;28;20619;-69
2021/04/08 04:42:49;;;;;;;9.60;7.50;;;;;;;3.83;100.00;100595.59;5052015;28;20025;-69
2021/04/08 04:45:15;;;;;;;9.95;6.95;;;;;;;3.70;100.00;100566.81;5051814;28;20408;-69
2021/04/08 04:47:44;;;;;;;8.75;6.85;;;;;;;3.93;100.00;100578.66;5051614;28;20025;-69
2021/04/08 04:50:11;;;;;;;8.98;6.22;;;;;;;3.96;100.00;100573.31;5049649;28;20135;-69
2021/04/08 04:52:37;;;;;;;8.55;6.03;;;;;;;4.06;100.00;100572.88;5049963;28;20025;-70
2021/04/08 04:55:04;;;;;;;9.35;6.65;;;;;;;3.89;100.00;100551.22;5049911;28;20039;-69
2021/04/08 04:57:30;;;;;;;10.43;6.03;;;;;;;4.21;100.00;100557.34;5052549;28;20036;-69
2021/04/08 04:59:55;;;;;;;20.50;7.43;;;;;;;4.34;100.00;100588.72;5052707;28;20035;-69
2021/04/08 05:02:21;;;;;;;8.50;6.85;;;;;;;4.12;100.00;100554.41;5052436;28;20455;-69
2021/04/08 05:04:46;;;;;;;11.20;7.38;;;;;;;4.33;100.00;100591.41;5051761;28;20497;-69
2021/04/08 05:07:12;;;;;;;9.57;6.93;;;;;;;3.87;100.00;100516.72;5046613;28;20400;-69
2021/04/08 05:09:37;;;;;;;9.50;6.85;;;;;;;4.05;100.00;100569.44;5049037;28;20052;-70
2021/04/08 05:12:03;;;;;;;11.60;7.97;;;;;;;4.12;100.00;100601.94;5049373;28;20043;-69
2021/04/08 05:14:29;;;;;;;11.93;7.43;;;;;;;3.93;100.00;100557.09;5048999;28;20099;-70
2021/04/08 05:16:54;;;;;;;10.05;7.80;;;;;;;4.14;100.00;100581.09;5049156;28;20025;-69
2021/04/08 05:19:21;;;;;;;11.27;8.05;;;;;;;4.35;100.00;100567.03;5049229;28;20415;-68
2021/04/08 05:21:49;;;;;;;12.68;8.20;;;;;;;5.05;100.00;100598.03;5048967;28;20025;-68
2021/04/08 05:24:14;;;;;;;14.65;10.00;;;;;;;5.33;100.00;100595.63;5049434;28;20041;-67
2021/04/08 05:26:39;;;;;;;16.60;10.55;;;;;;;5.44;100.00;100585.47;5049527;28;20021;-68
2021/04/08 05:29:05;;;;;;;13.75;8.50;;;;;;;5.49;100.00;100574.78;5048541;28;20047;-67
2021/04/08 05:31:30;;;;;;;17.65;10.18;;;;;;;5.49;100.00;100561.81;5048029;28;20108;-67
2021/04/08 05:33:56;;;;;;;16.92;9.55;;;;;;;5.89;100.00;100596.78;5048864;28;20487;-67
2021/04/08 05:36:21;;;;;;;16.70;7.93;;;;;;;5.94;100.00;100595.72;5049153;28;20148;-69
2021/04/08 05:38:47;;;;;;;14.50;7.78;;;;;;;5.86;100.00;100609.13;5048924;28;20021;-70
2021/04/08 05:41:12;;;;;;;17.92;9.15;;;;;;;5.63;100.00;100607.81;5049243;28;20485;-70
2021/04/08 05:43:38;;;;;;;30.63;16.42;;;;;;;5.37;100.00;100594.53;5049226;28;20021;-69
2021/04/08 05:46:06;;;;;;;36.97;21.27;;;;;;;5.37;100.00;100609.28;5064198;28;20040;-70
2021/04/08 05:48:31;;;;;;;19.15;13.25;;;;;;;5.36;100.00;100615.38;5049018;28;20029;-69
2021/04/08 05:50:57;;;;;;;16.17;10.88;;;;;;;5.38;100.00;100613.56;5048721;28;20032;-69
2021/04/08 05:53:22;;;;;;;17.80;12.38;;;;;;;5.23;100.00;100586.66;5048775;28;20025;-69
2021/04/08 05:55:48;;;;;;;15.63;12.07;;;;;;;5.00;100.00;100571.47;5049064;28;20041;-69
2021/04/08 05:58:13;;;;;;;18.08;12.88;;;;;;;5.02;100.00;100595.59;5048718;28;20047;-69
2021/04/08 06:00:38;;;;;;;10.95;7.53;;;;;;;5.24;100.00;100622.09;5048689;28;20033;-68
2021/04/08 06:03:04;;;;;;;12.23;5.97;;;;;;;5.04;100.00;100619.75;5046629;28;20052;-69
2021/04/08 06:05:30;;;;;;;15.73;9.38;;;;;;;5.03;100.00;100612.84;5049093;28;20067;-70
2021/04/08 06:07:55;;;;;;;12.38;5.78;;;;;;;4.96;100.00;100620.13;5048294;28;20789;-70
2021/04/08 06:10:21;;;;;;;5.57;3.30;;;;;;;4.87;100.00;100597.25;5048341;28;20036;-70
2021/04/08 06:12:47;;;;;;;9.93;5.75;;;;;;;4.88;100.00;100622.28;5048349;28;20036;-70
2021/04/08 06:15:13;;;;;;;11.07;7.20;;;;;;;4.76;100.00;100603.00;5048897;28;20109;-70
2021/04/08 06:17:38;;;;;;;14.80;6.70;;;;;;;4.77;100.00;100611.63;5051231;28;20128;-70
2021/04/08 06:20:08;;;;;;;13.07;8.65;;;;;;;4.91;100.00;100648.94;5050825;28;20104;-70
2021/04/08 06:22:34;;;;;;;11.07;6.93;;;;;;;4.90;100.00;100629.09;5051962;28;20056;-69
2021/04/08 06:24:59;;;;;;;10.38;6.65;;;;;;;5.35;100.00;100671.72;5052255;28;20025;-70
2021/04/08 06:27:25;;;;;;;10.02;6.40;;;;;;;4.95;100.00;100616.69;5052262;28;20066;-70
2021/04/08 06:29:50;;;;;;;11.02;6.88;;;;;;;5.18;100.00;100675.22;5052285;28;20028;-69
2021/04/08 06:32:16;;;;;;;9.23;6.55;;;;;;;5.22;100.00;100681.94;5052102;28;20108;-70
2021/04/08 06:34:41;;;;;;;8.82;6.57;;;;;;;5.27;100.00;100688.69;5051722;28;20033;-70
2021/04/08 06:37:07;;;;;;;10.15;6.38;;;;;;;5.25;100.00;100696.53;5050717;28;20033;-70
2021/04/08 06:39:35;;;;;;;8.30;6.85;;;;;;;5.02;100.00;100661.38;5050831;28;20028;-70
2021/04/08 06:42:00;;;;;;;9.20;6.18;;;;;;;4.97;100.00;100666.81;5051947;28;20021;-70
2021/04/08 06:44:29;;;;;;;10.15;6.45;;;;;;;5.17;100.00;100693.50;5051760;28;20127;-70
2021/04/08 06:46:58;;;;;;;9.07;6.38;;;;;;;5.01;100.00;100661.47;5046034;28;20029;-69
2021/04/08 06:49:33;;;;;;;8.48;5.65;;;;;;;5.11;100.00;100688.63;5044161;28;20404;-70
2021/04/08 06:51:59;;;;;;;8.27;5.57;;;;;;;4.96;100.00;100659.09;5050845;28;20056;-69
2021/04/08 06:54:26;;;;;;;9.23;6.10;;;;;;;5.36;100.00;100702.00;5051854;28;20021;-70
2021/04/08 06:56:52;;;;;;;8.10;6.18;;;;;;;5.50;100.00;100700.41;5048176;28;20150;-70
2021/04/08 06:59:18;;;;;;;12.02;6.53;;;;;;;5.48;100.00;100703.13;5051634;28;20025;-70
2021/04/08 07:01:45;;;;;;;7.97;6.15;;;;;;;5.49;100.00;100704.78;5051776;28;20044;-70
2021/04/08 07:04:11;;;;;;;7.85;5.30;;;;;;;5.64;100.00;100690.13;5051355;28;20041;-69
2021/04/08 07:06:38;;;;;;;10.18;6.35;;;;;;;5.73;100.00;100692.22;5051590;28;20472;-69
2021/04/08 07:09:07;;;;;;;10.20;5.88;;;;;;;5.76;100.00;100679.03;5051349;28;20040;-70
2021/04/08 07:11:34;;;;;;;9.75;6.28;;;;;;;5.78;100.00;100694.56;5047470;28;20728;-70
2021/04/08 07:14:00;;;;;;;9.45;6.45;;;;;;;5.70;100.00;100666.38;5051217;28;20400;-70
2021/04/08 07:16:26;;;;;;;9.65;6.25;;;;;;;5.69;100.00;100678.53;5059845;28;20484;-69
2021/04/08 07:18:53;;;;;;;10.55;6.18;;;;;;;5.72;100.00;100690.53;5050823;28;20033;-69
2021/04/08 07:21:18;;;;;;;17.92;11.15;;;;;;;5.83;100.00;100716.78;5050589;28;20056;-70
2021/04/08 07:24:06;;;;;;;10.75;7.38;;;;;;;5.89;100.00;100713.84;5051254;28;20110;-70
2021/04/08 07:26:32;;;;;;;5.93;3.90;;;;;;;5.93;100.00;100721.53;5046115;28;20546;-70
2021/04/08 07:28:57;;;;;;;5.80;3.75;;;;;;;5.71;100.00;100696.66;5050792;28;20033;-69
2021/04/08 07:31:32;;;;;;;5.78;4.28;;;;;;;5.72;100.00;100713.94;5050492;28;20020;-70
2021/04/08 07:33:59;;;;;;;6.80;4.55;;;;;;;5.77;100.00;100711.94;5051137;28;20550;-68
2021/04/08 07:36:34;;;;;;;6.63;4.47;;;;;;;5.84;100.00;100709.84;5050930;28;20025;-69
2021/04/08 07:39:02;;;;;;;11.95;9.38;;;;;;;5.97;100.00;100716.06;5048333;28;20477;-69
2021/04/08 07:41:31;;;;;;;54.08;39.75;;;;;;;6.18;100.00;100749.63;5049433;28;20017;-68
2021/04/08 07:44:08;;;;;;;8.15;5.40;;;;;;;6.24;100.00;100721.47;5049381;28;20086;-71
2021/04/08 07:46:42;;;;;;;9.35;6.95;;;;;;;6.39;100.00;100691.97;5049520;28;20029;-69
2021/04/08 07:49:31;;;;;;;8.50;5.65;;;;;;;6.42;100.00;100737.00;5049298;28;20041;-69
2021/04/08 07:52:13;;;;;;;14.70;10.93;;;;;;;6.37;100.00;100739.84;5049982;28;20029;-69
2021/04/08 07:54:39;;;;;;;18.17;12.90;;;;;;;6.40;100.00;100739.69;5050804;28;20545;-69
2021/04/08 07:57:05;;;;;;;11.18;7.25;;;;;;;6.55;100.00;100743.19;5050187;28;20032;-69
2021/04/08 07:59:30;;;;;;;12.85;8.43;;;;;;;6.59;100.00;100744.69;5050340;28;20029;-69
2021/04/08 08:02:14;;;;;;;28.83;17.30;;;;;;;6.49;100.00;100744.38;5049987;28;20033;-70
2021/04/08 08:04:39;;;;;;;12.38;7.30;;;;;;;6.27;100.00;100718.69;5049001;28;20041;-69
2021/04/08 08:07:05;;;;;;;11.32;8.18;;;;;;;6.37;100.00;100712.03;5049869;28;20036;-69
2021/04/08 08:09:32;;;;;;;8.85;5.97;;;;;;;6.77;100.00;100755.78;5050719;28;20083;-68
2021/04/08 08:12:09;;;;;;;7.10;5.13;;;;;;;6.86;100.00;100756.09;5050193;28;20027;-69
2021/04/08 08:14:39;;;;;;;9.23;6.15;;;;;;;6.89;100.00;100756.84;5047184;28;20033;-69
2021/04/08 08:17:09;;;;;;;7.85;5.47;;;;;;;6.89;100.00;100762.06;5048559;28;20037;-68
2021/04/08 08:19:43;;;;;;;6.78;5.15;;;;;;;6.74;100.00;100728.16;5050307;28;20488;-69
2021/04/08 08:22:20;;;;;;;7.22;5.57;;;;;;;6.84;100.00;100739.69;5050191;28;20112;-68
2021/04/08 08:24:58;;;;;;;8.43;5.40;;;;;;;7.12;100.00;100769.38;5048727;28;20083;-69
2021/04/08 08:27:46;;;;;;;7.47;5.45;;;;;;;7.20;100.00;100780.16;5049842;28;20931;-69
2021/04/08 08:30:19;;;;;;;8.50;6.43;;;;;;;7.00;100.00;100746.63;5049360;28;20033;-68
2021/04/08 08:33:14;;;;;;;10.02;7.05;;;;;;;7.39;100.00;100777.31;5049478;28;20029;-69
2021/04/08 08:35:40;;;;;;;8.52;5.90;;;;;;;7.42;100.00;100779.69;5073934;28;20027;-69
2021/04/08 08:38:10;;;;;;;7.88;5.70;;;;;;;7.40;100.00;100765.94;5049015;28;20029;-69
2021/04/08 08:40:37;;;;;;;9.15;5.40;;;;;;;7.22;100.00;100739.22;5048260;28;20049;-69
2021/04/08 08:43:04;;;;;;;9.13;5.20;;;;;;;7.33;100.00;100757.66;5064950;28;20068;-69
2021/04/08 08:45:31;;;;;;;11.60;7.05;;;;;;;7.49;100.00;100741.03;5049457;28;20017;-69
2021/04/08 08:48:00;;;;;;;12.55;7.20;;;;;;;7.56;100.00;100739.75;5049537;28;20147;-68
2021/04/08 08:50:26;;;;;;;14.48;6.70;;;;;;;7.57;100.00;100734.44;5047632;28;20104;-69
2021/04/08 08:52:52;;;;;;;11.25;5.93;;;;;;;7.73;100.00;100763.03;5049102;28;20543;-68
2021/04/08 08:55:20;;;;;;;8.75;5.40;;;;;;;7.67;100.00;100750.38;5049578;28;20454;-70
2021/04/08 08:57:49;;;;;;;11.13;5.78;;;;;;;7.75;100.00;100742.88;5049077;28;20037;-68
2021/04/08 09:00:15;;;;;;;12.65;6.20;;;;;;;7.55;100.00;100704.16;5049350;28;20032;-68
2021/04/08 09:02:42;;;;;;;13.13;7.35;;;;;;;8.09;100.00;100756.41;5049303;28;20044;-68
2021/04/08 09:05:12;;;;;;;9.98;6.25;;;;;;;8.11;100.00;100751.13;5049876;28;20499;-68
2021/04/08 09:07:41;;;;;;;11.90;6.80;;;;;;;8.11;100.00;100746.72;5049479;28;20021;-69
2021/04/08 09:10:08;;;;;;;6.75;4.75;;;;;;;8.36;100.00;100768.63;5049485;28;20407;-68
2021/04/08 09:12:34;;;;;;;8.27;4.22;;;;;;;8.64;100.00;100784.25;5049273;28;20082;-69
2021/04/08 09:14:59;;;;;;;10.93;5.88;;;;;;;8.83;100.00;100786.47;5049202;28;20104;-69
2021/04/08 09:17:58;;;;;;;7.75;4.15;;;;;;;9.12;100.00;100779.28;5049161;28;20021;-69
2021/04/08 09:20:25;;;;;;;7.63;5.20;;;;;;;8.95;100.00;100761.28;5039980;28;20135;-68
2021/04/08 09:23:02;;;;;;;10.30;5.15;;;;;;;8.95;100.00;100787.44;5048763;28;20021;-69
2021/04/08 09:25:33;;;;;;;11.35;5.70;;;;;;;8.93;100.00;100755.31;5049304;28;20079;-68
2021/04/08 09:28:03;;;;;;;9.45;6.53;;;;;;;9.10;100.00;100780.31;5047855;28;20036;-69
2021/04/08 09:31:23;;;;;;;6.68;3.88;;;;;;;8.88;100.00;100749.56;5047914;28;20029;-69
2021/04/08 09:33:40;;;;;;;6.00;3.85;;;;;;;9.08;100.00;100787.44;5044368;28;20519;-69
2021/04/08 09:36:35;;;;;;;6.07;4.10;;;;;;;9.03;100.00;100787.75;5047408;28;20488;-69
2021/04/08 09:39:00;;;;;;;8.38;5.00;;;;;;;9.18;100.00;100780.66;5040048;28;20033;-69
2021/04/08 09:41:45;;;;;;;7.28;4.82;;;;;;;9.33;100.00;100777.00;5047242;28;20546;-68
2021/04/08 09:44:12;;;;;;;7.72;4.60;;;;;;;9.44;100.00;100773.63;5045860;28;20087;-69
2021/04/08 09:46:40;;;;;;;9.57;4.80;;;;;;;9.44;100.00;100758.75;5048041;28;20075;-68
2021/04/08 09:49:06;;;;;;;6.50;4.55;;;;;;;9.67;100.00;100782.50;5048969;28;20087;-68
2021/04/08 09:51:47;;;;;;;9.60;5.07;;;;;;;9.49;100.00;100753.22;5051876;28;20029;-67
2021/04/08 09:54:15;;;;;;;6.38;4.47;;;;;;;9.62;100.00;100740.97;5052043;28;20021;-68
2021/04/08 09:56:56;;;;;;;8.32;5.18;;;;;;;9.68;100.00;100766.69;5052961;28;20024;-68
2021/04/08 09:59:24;;;;;;;9.40;5.30;;;;;;;9.62;100.00;100767.13;5052830;28;20041;-68
2021/04/08 10:01:51;;;;;;;11.45;6.53;;;;;;;9.49;100.00;100765.47;5052767;28;20054;-68
2021/04/08 10:04:25;;;;;;;10.20;5.10;;;;;;;9.43;100.00;100749.25;5052604;28;20140;-67
2021/04/08 10:07:17;;;;;;;11.55;5.50;;;;;;;9.53;100.00;100772.16;5051199;28;20060;-68
2021/04/08 10:09:53;;;;;;;11.70;8.13;;;;;;;9.15;100.00;100739.03;5046213;28;20096;-68
2021/04/08 10:12:38;;;;;;;9.38;4.60;;;;;;;9.27;100.00;100777.41;5050349;28;20040;-68
2021/04/08 10:15:04;;;;;;;7.35;4.80;;;;;;;8.63;100.00;100701.53;5051398;28;20581;-69
2021/04/08 10:17:38;;;;;;;9.80;6.25;;;;;;;9.02;100.00;100785.25;5051917;28;20021;-68
2021/04/08 10:20:08;;;;;;;9.68;5.70;;;;;;;8.89;100.00;100751.25;5043766;28;20063;-68
2021/04/08 10:22:45;;;;;;;11.55;5.50;;;;;;;8.92;100.00;100782.41;5052197;28;20082;-68
2021/04/08 10:25:12;;;;;;;9.93;7.30;;;;;;;8.94;100.00;100785.75;5050685;28;20037;-68
2021/04/08 10:27:38;;;;;;;14.50;8.90;;;;;;;8.78;100.00;100778.09;5051902;28;20056;-68
2021/04/08 10:30:17;;;;;;;29.33;26.15;;;;;;;8.71;100.00;100780.28;5052125;28;20029;-68
2021/04/08 10:32:44;;;;;;;11.60;7.10;;;;;;;8.64;100.00;100781.63;5051984;28;20488;-68
2021/04/08 10:35:25;;;;;;;19.83;16.23;;;;;;;8.40;100.00;100754.47;5051245;28;20074;-68
2021/04/08 10:37:58;;;;;;;6.70;4.68;;;;;;;8.27;100.00;100775.31;5049747;28;20037;-69
2021/04/08 10:40:24;;;;;;;8.52;5.55;;;;;;;8.31;100.00;100770.72;5049882;28;20033;-68
2021/04/08 10:42:50;;;;;;;5.22;2.53;;;;;;;8.28;100.00;100796.09;5049497;28;20419;-69
2021/04/08 10:45:16;;;;;;;6.82;4.80;;;;;;;8.05;100.00;100765.38;5049982;28;20413;-69
2021/04/08 10:47:42;;;;;;;7.20;5.05;;;;;;;8.19;100.00;100801.06;5050032;28;20041;-68
2021/04/08 10:50:08;;;;;;;4.78;3.00;;;;;;;8.00;100.00;100767.47;5051932;28;20473;-68
2021/04/08 10:52:36;;;;;;;3.13;1.75;;;;;;;7.88;100.00;100773.44;5050373;28;20045;-69
2021/04/08 10:55:06;;;;;;;6.55;4.10;;;;;;;8.02;100.00;100807.34;5051390;28;20037;-69
2021/04/08 10:57:32;;;;;;;;;;;;;;;7.97;100.00;100810.25;5052109;28;20032;-68
2021/04/08 10:59:59;;;;;;;5.65;3.35;;;;;;;7.96;100.00;100805.09;5051495;28;19916;-69
2021/04/08 11:02:33;;;;;;;6.45;2.95;;;;;;;7.81;88.76;100789.47;5065017;28;20044;-69
2021/04/08 11:05:02;;;;;;;6.40;3.58;;;;;;;8.13;90.19;100817.94;5049629;28;20793;-69
2021/04/08 11:07:35;;;;;;;6.18;3.28;;;;;;;8.28;87.61;100835.25;5049719;28;20025;-68
2021/04/08 11:10:11;;;;;;;5.63;3.03;;;;;;;8.15;86.45;100810.03;5048111;28;20047;-68
2021/04/08 11:12:37;;;;;;;3.47;2.15;;;;;;;8.44;82.18;100829.94;5049791;28;20037;-68
2021/04/08 11:15:05;;;;;;;5.65;2.70;;;;;;;8.37;73.95;100817.31;5049529;28;20095;-69
2021/04/08 11:17:32;;;;;;;4.93;2.75;;;;;;;8.35;58.88;100825.25;5048186;28;20102;-69
2021/04/08 11:19:58;;;;;;;5.07;2.67;;;;;;;8.34;59.60;100835.81;5050550;28;20029;-69
2021/04/08 11:22:29;;;;;;;5.63;2.67;;;;;;;8.00;61.67;100804.84;5050680;28;20404;-68
2021/04/08 11:24:56;;;;;;;4.90;2.65;;;;;;;8.18;67.01;100818.50;5061890;28;20112;-69
2021/04/08 11:27:44;;;;;;;5.93;3.15;;;;;;;8.41;66.28;100829.31;5050984;28;20492;-68
2021/04/08 11:30:14;;;;;;;6.32;3.33;;;;;;;8.33;65.79;100815.84;5051377;28;20040;-69
2021/04/08 11:32:59;;;;;;;6.30;3.38;;;;;;;8.30;59.94;100845.59;5050900;28;20059;-68